AAL1840 KPHX-KDFW
Flight info
| Callsign | AAL1840 |
|---|---|
| Flight time | N/A |
| Altitude | 37000 |
| Route | BROAK1 MAXXO TXO TURKI VKTRY2 |
| Aircraft | A321/M-SDE3FGHIRWY/LB1 |
Departure
| Time | 2026-05-05 04:07 |
|---|---|
| Airport | Phoenix Sky Harbor International Airport (KPHX) |
Arrival
| Time | N/A |
|---|---|
| Airport | Dallas Fort Worth International Airport (KDFW) |
| Time | Latitude | Longitude | Altitude | Speed | Heading |
|---|---|---|---|---|---|
| 2026-05-05 03:38 | 33.43758 | -111.99872 | 1124 ft | 0 kts | 269° |
| 2026-05-05 03:55 | 33.43758 | -111.99871 | 1124 ft | 1 kts | 269° |
| 2026-05-05 03:55 | 33.43755 | -111.99844 | 1121 ft | 4 kts | 305° |
| 2026-05-05 03:55 | 33.43736 | -111.99827 | 1115 ft | 4 kts | 352° |
| 2026-05-05 03:55 | 33.43727 | -111.99826 | 1119 ft | 0 kts | 0° |
| 2026-05-05 03:59 | 33.43732 | -111.99826 | 1119 ft | 2 kts | 0° |
| 2026-05-05 03:59 | 33.43748 | -111.99826 | 1115 ft | 3 kts | 0° |
| 2026-05-05 03:59 | 33.43777 | -111.99826 | 1120 ft | 5 kts | 0° |
| 2026-05-05 04:00 | 33.43817 | -111.99826 | 1121 ft | 7 kts | 0° |
| 2026-05-05 04:00 | 33.43869 | -111.99826 | 1120 ft | 8 kts | 359° |
| 2026-05-05 04:00 | 33.43904 | -111.99784 | 1120 ft | 8 kts | 83° |
| 2026-05-05 04:00 | 33.43904 | -111.99707 | 1124 ft | 10 kts | 89° |
| 2026-05-05 04:01 | 33.43904 | -111.99618 | 1124 ft | 11 kts | 90° |
| 2026-05-05 04:01 | 33.43904 | -111.99518 | 1124 ft | 13 kts | 90° |
| 2026-05-05 04:01 | 33.43904 | -111.99405 | 1124 ft | 14 kts | 90° |
| 2026-05-05 04:01 | 33.43904 | -111.99295 | 1124 ft | 9 kts | 90° |
| 2026-05-05 04:02 | 33.43885 | -111.99232 | 1119 ft | 9 kts | 149° |
| 2026-05-05 04:02 | 33.43822 | -111.99226 | 1119 ft | 10 kts | 181° |
| 2026-05-05 04:02 | 33.43747 | -111.99228 | 1120 ft | 12 kts | 180° |
| 2026-05-05 04:02 | 33.43661 | -111.99226 | 1119 ft | 13 kts | 180° |
| 2026-05-05 04:03 | 33.43565 | -111.99227 | 1119 ft | 15 kts | 180° |
| 2026-05-05 04:03 | 33.43464 | -111.99227 | 1119 ft | 11 kts | 182° |
| 2026-05-05 04:03 | 33.43395 | -111.99243 | 1121 ft | 7 kts | 156° |
| 2026-05-05 04:03 | 33.43347 | -111.99244 | 1119 ft | 8 kts | 185° |
| 2026-05-05 04:04 | 33.43287 | -111.99247 | 1124 ft | 9 kts | 180° |
| 2026-05-05 04:04 | 33.43219 | -111.99250 | 1120 ft | 10 kts | 197° |
| 2026-05-05 04:04 | 33.43198 | -111.99270 | 1115 ft | 0 kts | 226° |
| 2026-05-05 04:05 | 33.43197 | -111.99271 | 1116 ft | 1 kts | 226° |
| 2026-05-05 04:05 | 33.43185 | -111.99287 | 1115 ft | 4 kts | 226° |
| 2026-05-05 04:06 | 33.43154 | -111.99325 | 1113 ft | 8 kts | 226° |
| 2026-05-05 04:06 | 33.43105 | -111.99360 | 1122 ft | 8 kts | 237° |
| 2026-05-05 04:06 | 33.43104 | -111.99434 | 1121 ft | 10 kts | 271° |
| 2026-05-05 04:06 | 33.43104 | -111.99762 | 1124 ft | 82 kts | 270° |
| 2026-05-05 04:07 | 33.43107 | -112.00770 | 1127 ft | 156 kts | 270° |
| 2026-05-05 04:07 | 33.43109 | -112.02188 | 1727 ft | 174 kts | 270° |
| 2026-05-05 04:07 | 33.43090 | -112.03627 | 2618 ft | 172 kts | 266° |
| 2026-05-05 04:07 | 33.43017 | -112.05045 | 3416 ft | 170 kts | 264° |
| 2026-05-05 04:08 | 33.42932 | -112.06520 | 3691 ft | 188 kts | 263° |
| 2026-05-05 04:08 | 33.42719 | -112.08140 | 3847 ft | 207 kts | 248° |
| 2026-05-05 04:08 | 33.42151 | -112.09821 | 3957 ft | 231 kts | 246° |
| 2026-05-05 04:08 | 33.41536 | -112.11703 | 4295 ft | 252 kts | 247° |
| 2026-05-05 04:09 | 33.40902 | -112.13695 | 5019 ft | 259 kts | 246° |
| 2026-05-05 04:09 | 33.40207 | -112.15694 | 5822 ft | 260 kts | 236° |
| 2026-05-05 04:09 | 33.38992 | -112.17257 | 6597 ft | 258 kts | 212° |
| 2026-05-05 04:09 | 33.37317 | -112.18017 | 7335 ft | 262 kts | 187° |
| 2026-05-05 04:10 | 33.35492 | -112.17807 | 8055 ft | 269 kts | 166° |
| 2026-05-05 04:10 | 33.33683 | -112.17168 | 8806 ft | 273 kts | 166° |
| 2026-05-05 04:10 | 33.31845 | -112.16509 | 9543 ft | 278 kts | 166° |
| 2026-05-05 04:10 | 33.29989 | -112.15777 | 10223 ft | 285 kts | 159° |
| 2026-05-05 04:11 | 33.28268 | -112.14513 | 10754 ft | 302 kts | 143° |
| 2026-05-05 04:11 | 33.26695 | -112.12703 | 10949 ft | 327 kts | 136° |
| 2026-05-05 04:11 | 33.25378 | -112.10372 | 11258 ft | 349 kts | 117° |
| 2026-05-05 04:11 | 33.24665 | -112.07554 | 11839 ft | 361 kts | 101° |
| 2026-05-05 04:12 | 33.24654 | -112.04520 | 12476 ft | 370 kts | 84° |
| 2026-05-05 04:12 | 33.25008 | -112.01455 | 13158 ft | 374 kts | 84° |
| 2026-05-05 04:12 | 33.25372 | -111.98353 | 13809 ft | 379 kts | 84° |
| 2026-05-05 04:12 | 33.25759 | -111.95212 | 14371 ft | 385 kts | 81° |
| 2026-05-05 04:13 | 33.26503 | -111.92152 | 14897 ft | 392 kts | 69° |
| 2026-05-05 04:13 | 33.27718 | -111.89206 | 15430 ft | 399 kts | 62° |
| 2026-05-05 04:13 | 33.29025 | -111.86257 | 15975 ft | 404 kts | 62° |
| 2026-05-05 04:13 | 33.30347 | -111.83260 | 16526 ft | 410 kts | 62° |
| 2026-05-05 04:14 | 33.31681 | -111.80218 | 17057 ft | 416 kts | 62° |
| 2026-05-05 04:14 | 33.33030 | -111.77125 | 17588 ft | 422 kts | 62° |
| 2026-05-05 04:14 | 33.34392 | -111.73998 | 18130 ft | 428 kts | 62° |
| 2026-05-05 04:14 | 33.35779 | -111.70819 | 18598 ft | 433 kts | 62° |
| 2026-05-05 04:15 | 33.37177 | -111.67608 | 19075 ft | 437 kts | 63° |
| 2026-05-05 04:15 | 33.38585 | -111.64366 | 19579 ft | 441 kts | 63° |
| 2026-05-05 04:15 | 33.40002 | -111.61094 | 20088 ft | 445 kts | 63° |
| 2026-05-05 04:15 | 33.41434 | -111.57787 | 20582 ft | 450 kts | 63° |
| 2026-05-05 04:16 | 33.42826 | -111.54418 | 21060 ft | 453 kts | 69° |
| 2026-05-05 04:16 | 33.44040 | -111.50625 | 21592 ft | 457 kts | 71° |
| 2026-05-05 04:16 | 33.46916 | -111.41487 | 22819 ft | 467 kts | 71° |
| 2026-05-05 04:16 | 33.50039 | -111.31594 | 24000 ft | 476 kts | 70° |
| 2026-05-05 04:17 | 33.56209 | -111.11149 | 25851 ft | 497 kts | 73° |
| 2026-05-05 04:17 | 33.60550 | -110.95165 | 27158 ft | 511 kts | 72° |
| 2026-05-05 04:17 | 33.65139 | -110.78785 | 28477 ft | 523 kts | 72° |
| 2026-05-05 04:17 | 33.69779 | -110.61984 | 29696 ft | 537 kts | 72° |
| 2026-05-05 04:18 | 33.74503 | -110.44773 | 30680 ft | 550 kts | 72° |
| 2026-05-05 04:18 | 33.79309 | -110.27155 | 31861 ft | 557 kts | 72° |
| 2026-05-05 04:18 | 33.82529 | -110.15372 | 32658 ft | 561 kts | 72° |
| 2026-05-05 04:18 | 33.87386 | -109.97447 | 33814 ft | 567 kts | 72° |
| 2026-05-05 04:19 | 33.90242 | -109.86829 | 34480 ft | 569 kts | 72° |
| 2026-05-05 04:19 | 33.91457 | -109.82293 | 34795 ft | 569 kts | 72° |
| 2026-05-05 04:19 | 33.92666 | -109.77768 | 35109 ft | 568 kts | 72° |
| 2026-05-05 04:19 | 33.93876 | -109.73242 | 35420 ft | 568 kts | 72° |
| 2026-05-05 04:20 | 33.95088 | -109.68713 | 35736 ft | 568 kts | 72° |
| 2026-05-05 04:20 | 33.96298 | -109.64188 | 36065 ft | 567 kts | 72° |
| 2026-05-05 04:20 | 33.97503 | -109.59663 | 36362 ft | 567 kts | 71° |
| 2026-05-05 04:20 | 33.98703 | -109.55142 | 36607 ft | 567 kts | 72° |
| 2026-05-05 04:21 | 33.99903 | -109.50617 | 36862 ft | 567 kts | 72° |
| 2026-05-05 04:21 | 34.01104 | -109.46084 | 37056 ft | 568 kts | 72° |
| 2026-05-05 04:21 | 34.06824 | -109.24339 | 37067 ft | 565 kts | 72° |
| 2026-05-05 04:22 | 34.11574 | -109.06228 | 36966 ft | 563 kts | 72° |
| 2026-05-05 04:22 | 34.13442 | -108.99067 | 36999 ft | 562 kts | 72° |
| 2026-05-05 04:22 | 34.15793 | -108.90013 | 36911 ft | 567 kts | 72° |
| 2026-05-05 04:23 | 34.18147 | -108.80898 | 36898 ft | 568 kts | 71° |
| 2026-05-05 04:23 | 34.20776 | -108.70681 | 36885 ft | 568 kts | 71° |
| 2026-05-05 04:24 | 34.25460 | -108.52449 | 36878 ft | 568 kts | 71° |
| 2026-05-05 04:25 | 34.38206 | -108.00728 | 36781 ft | 567 kts | 82° |
| 2026-05-05 04:25 | 34.38596 | -107.81996 | 36824 ft | 563 kts | 90° |
| 2026-05-05 04:26 | 34.38853 | -107.65079 | 36827 ft | 563 kts | 90° |
| 2026-05-05 04:26 | 34.39144 | -107.27106 | 36816 ft | 564 kts | 90° |
| 2026-05-05 04:27 | 34.39296 | -107.00369 | 36778 ft | 566 kts | 91° |
| 2026-05-05 04:27 | 34.39330 | -106.90867 | 36766 ft | 564 kts | 90° |
| 2026-05-05 04:28 | 34.39821 | -106.55831 | 36829 ft | 569 kts | 86° |
| 2026-05-05 04:28 | 34.41462 | -106.17571 | 36867 ft | 568 kts | 87° |
| 2026-05-05 04:29 | 34.42868 | -105.79472 | 36860 ft | 564 kts | 87° |
| 2026-05-05 04:29 | 34.44108 | -105.41595 | 36838 ft | 560 kts | 87° |
| 2026-05-05 04:30 | 34.45241 | -105.03999 | 36780 ft | 557 kts | 87° |
| 2026-05-05 04:30 | 34.46049 | -104.74126 | 36556 ft | 560 kts | 90° |
| 2026-05-05 04:30 | 34.46168 | -104.69436 | 36715 ft | 557 kts | 90° |
| 2026-05-05 04:31 | 34.46287 | -104.64730 | 36706 ft | 560 kts | 90° |
| 2026-05-05 04:31 | 34.46708 | -104.48003 | 36688 ft | 561 kts | 90° |
| 2026-05-05 04:32 | 34.47559 | -104.10123 | 36654 ft | 562 kts | 90° |
| 2026-05-05 04:32 | 34.48278 | -103.72212 | 36665 ft | 563 kts | 90° |
| 2026-05-05 04:32 | 34.48580 | -103.53219 | 36790 ft | 563 kts | 89° |
| 2026-05-05 04:33 | 34.48891 | -103.34237 | 36857 ft | 564 kts | 89° |
| 2026-05-05 04:33 | 34.49390 | -102.96200 | 36880 ft | 564 kts | 89° |
| 2026-05-05 04:33 | 34.48825 | -102.77231 | 36781 ft | 562 kts | 100° |
| 2026-05-05 04:34 | 34.47917 | -102.68732 | 36770 ft | 562 kts | 99° |
| 2026-05-05 04:34 | 34.45614 | -102.45946 | 36736 ft | 563 kts | 99° |
| 2026-05-05 04:35 | 34.41611 | -102.08499 | 36716 ft | 564 kts | 99° |
| 2026-05-05 04:35 | 34.37482 | -101.70927 | 36774 ft | 562 kts | 99° |
| 2026-05-05 04:36 | 34.33260 | -101.33483 | 36681 ft | 561 kts | 99° |
| 2026-05-05 04:36 | 34.28937 | -100.96137 | 36659 ft | 561 kts | 99° |